Time;durP1;ratioP1;P1;durP2;ratioP2;P2;SDS_P1;SDS_P2;PMS_P1;PMS_P2;Temp;Humidity;BMP_temperature;BMP_pressure;BME280_temperature;BME280_humidity;BME280_pressure;Samples;Min_cycle;Max_cycle;Signal;HPM_P1;HPM_P2
2023/03/29 00:00:15;;;;;;;8.20;5.00;;;5.20;1.00;;;;;;5035549;28;20178;-50
2023/03/29 00:02:46;;;;;;;11.93;5.03;;;5.20;1.00;;;;;;5035666;28;20281;-50
2023/03/29 00:05:17;;;;;;;11.63;4.60;;;5.20;1.00;;;;;;5035551;28;20441;-50
2023/03/29 00:07:42;;;;;;;10.37;4.60;;;5.30;1.00;;;;;;5035098;28;20416;-50
2023/03/29 00:10:09;;;;;;;11.90;4.80;;;5.30;1.00;;;;;;5035271;28;20417;-49
2023/03/29 00:12:37;;;;;;;12.33;4.90;;;5.20;1.00;;;;;;5035245;28;20230;-50
2023/03/29 00:15:04;;;;;;;9.70;4.50;;;5.20;1.00;;;;;;5034855;28;20433;-50
2023/03/29 00:17:30;;;;;;;12.33;4.87;;;5.30;1.00;;;;;;5035174;28;20425;-50
2023/03/29 00:19:56;;;;;;;8.57;4.80;;;5.30;1.00;;;;;;5035140;28;20417;-49
2023/03/29 00:22:21;;;;;;;8.97;4.70;;;5.30;1.00;;;;;;5035331;28;20222;-49
2023/03/29 00:24:47;;;;;;;8.03;4.73;;;5.30;1.00;;;;;;5035244;28;20187;-49
2023/03/29 00:27:15;;;;;;;8.27;5.03;;;5.40;1.00;;;;;;5035127;28;20646;-50
2023/03/29 00:29:41;;;;;;;7.07;4.53;;;5.20;1.00;;;;;;5035191;28;20515;-50
2023/03/29 00:32:06;;;;;;;17.37;5.30;;;5.20;1.00;;;;;;5034774;28;20824;-50
2023/03/29 00:34:34;;;;;;;10.80;4.70;;;5.20;1.00;;;;;;5034824;28;20186;-50
2023/03/29 00:37:01;;;;;;;8.10;4.50;;;5.10;1.00;;;;;;5034760;28;20695;-50
2023/03/29 00:39:27;;;;;;;8.73;4.80;;;5.10;1.00;;;;;;5034944;28;20539;-49
2023/03/29 00:41:53;;;;;;;12.43;4.17;;;5.00;1.00;;;;;;5034528;28;20547;-49
2023/03/29 00:44:57;;;;;;;11.80;5.17;;;5.00;1.00;;;;;;5033457;28;20237;-49
2023/03/29 00:47:50;;;;;;;11.43;4.83;;;4.90;1.00;;;;;;5034768;28;20424;-49
2023/03/29 00:50:24;;;;;;;8.33;5.47;;;4.90;1.00;;;;;;5034789;28;20413;-50
2023/03/29 00:53:00;;;;;;;8.60;4.90;;;4.90;1.00;;;;;;5034567;28;20500;-49
2023/03/29 00:55:30;;;;;;;13.00;5.30;;;4.90;1.00;;;;;;5034559;28;20440;-49
2023/03/29 00:57:57;;;;;;;9.23;5.33;;;4.90;1.00;;;;;;5034388;28;20405;-49
2023/03/29 01:00:30;;;;;;;9.30;5.10;;;4.80;1.00;;;;;;5034306;28;20936;-49
2023/03/29 01:02:58;;;;;;;13.63;5.13;;;4.90;1.00;;;;;;5034698;28;20466;-50
2023/03/29 01:05:33;;;;;;;11.70;4.90;;;4.90;1.00;;;;;;5034243;28;20410;-49
2023/03/29 01:08:18;;;;;;;7.60;5.53;;;4.90;1.00;;;;;;5034601;28;20405;-49
2023/03/29 01:10:50;;;;;;;9.50;4.50;;;4.80;1.00;;;;;;5034128;28;20886;-49
2023/03/29 01:13:25;;;;;;;10.73;4.90;;;4.80;1.00;;;;;;5034161;28;20417;-50
2023/03/29 01:15:53;;;;;;;12.70;5.00;;;4.90;1.00;;;;;;5034206;28;20409;-49
2023/03/29 01:18:21;;;;;;;7.47;4.30;;;4.90;1.00;;;;;;5034171;28;20477;-49
2023/03/29 01:20:54;;;;;;;8.40;4.97;;;4.90;1.00;;;;;;5034184;28;20461;-50
2023/03/29 01:23:49;;;;;;;10.00;5.17;;;4.90;1.00;;;;;;5033935;28;20751;-50
2023/03/29 01:26:41;;;;;;;9.57;5.10;;;4.90;1.00;;;;;;5034206;28;20417;-50
2023/03/29 01:29:32;;;;;;;6.97;4.80;;;4.90;1.00;;;;;;5033648;28;20446;-50
2023/03/29 01:32:12;;;;;;;12.83;5.50;;;4.90;1.00;;;;;;5034068;28;20814;-49
2023/03/29 01:34:52;;;;;;;16.37;5.40;;;4.90;1.00;;;;;;5033739;28;20417;-51
2023/03/29 01:37:25;;;;;;;10.17;5.47;;;4.80;1.00;;;;;;5033743;28;20504;-49
2023/03/29 01:39:51;;;;;;;8.10;5.10;;;4.80;1.00;;;;;;5033885;28;20401;-50
2023/03/29 01:42:23;;;;;;;8.13;4.70;;;4.80;1.00;;;;;;5033815;28;20472;-49
2023/03/29 01:44:51;;;;;;;11.77;4.93;;;4.70;1.00;;;;;;5033239;28;20492;-49
2023/03/29 01:47:26;;;;;;;6.63;4.60;;;4.70;1.00;;;;;;5033442;28;20429;-49
2023/03/29 01:50:09;;;;;;;5.27;4.30;;;4.70;1.00;;;;;;5033884;28;20916;-50
2023/03/29 01:52:45;;;;;;;8.47;5.10;;;4.80;1.00;;;;;;5033871;28;20445;-49
2023/03/29 01:55:17;;;;;;;10.30;4.90;;;4.80;1.00;;;;;;5034218;28;21007;-50
2023/03/29 01:57:46;;;;;;;8.30;4.63;;;4.80;1.00;;;;;;5037620;28;20424;-51
2023/03/29 02:00:19;;;;;;;11.00;6.27;;;4.80;1.00;;;;;;5037460;28;20436;-50
2023/03/29 02:02:46;;;;;;;12.17;5.13;;;4.80;1.00;;;;;;5038087;28;20418;-49
2023/03/29 02:05:14;;;;;;;9.43;4.83;;;4.70;1.00;;;;;;5037773;28;20822;-49
2023/03/29 02:07:40;;;;;;;14.30;5.90;;;4.80;1.00;;;;;;5037541;28;20417;-49
2023/03/29 02:10:08;;;;;;;5.60;4.40;;;4.80;1.00;;;;;;5037738;28;20415;-51
2023/03/29 02:12:34;;;;;;;8.20;4.70;;;4.70;1.00;;;;;;5037897;28;20436;-49
2023/03/29 02:15:00;;;;;;;6.20;4.40;;;4.70;1.00;;;;;;5037811;28;20413;-50
2023/03/29 02:17:27;;;;;;;9.90;5.53;;;4.70;1.00;;;;;;5037134;28;20412;-49
2023/03/29 02:20:16;;;;;;;7.30;3.90;;;4.70;1.00;;;;;;5037530;28;20220;-50
2023/03/29 02:22:47;;;;;;;10.67;4.60;;;4.70;1.00;;;;;;5037626;28;20417;-50
2023/03/29 02:25:14;;;;;;;13.80;4.43;;;4.70;1.00;;;;;;5037258;28;20436;-50
2023/03/29 02:27:41;;;;;;;8.40;4.70;;;4.60;1.00;;;;;;5037459;28;20425;-50
2023/03/29 02:30:09;;;;;;;9.73;4.10;;;4.60;1.00;;;;;;5036937;28;20404;-50
2023/03/29 02:32:47;;;;;;;11.47;4.37;;;4.60;1.00;;;;;;5037039;28;20433;-50
2023/03/29 02:35:19;;;;;;;9.50;4.70;;;4.60;1.00;;;;;;5037394;28;20463;-50
2023/03/29 02:37:48;;;;;;;5.77;4.17;;;4.60;1.00;;;;;;5037390;28;20406;-51
2023/03/29 02:40:16;;;;;;;8.50;4.30;;;4.60;1.00;;;;;;5037043;28;20408;-50
2023/03/29 02:42:44;;;;;;;10.47;5.00;;;4.60;1.00;;;;;;5036932;28;20433;-50
2023/03/29 02:45:13;;;;;;;9.63;4.10;;;4.60;1.00;;;;;;5036808;28;20835;-50
2023/03/29 02:47:44;;;;;;;7.67;4.20;;;4.60;1.00;;;;;;5036571;28;20413;-50
2023/03/29 02:50:10;;;;;;;11.20;4.50;;;4.60;1.00;;;;;;5037159;28;20412;-50
2023/03/29 02:52:41;;;;;;;7.80;4.90;;;4.70;1.00;;;;;;5037114;28;20505;-50
2023/03/29 02:55:14;;;;;;;7.43;4.40;;;4.70;1.00;;;;;;5036848;28;20402;-50
2023/03/29 02:57:42;;;;;;;7.57;4.20;;;4.60;1.00;;;;;;5036664;28;20502;-50
2023/03/29 03:00:09;;;;;;;11.97;4.47;;;4.60;1.00;;;;;;5036846;28;20416;-50
2023/03/29 03:02:36;;;;;;;11.07;4.63;;;4.60;1.00;;;;;;5036686;28;20463;-50
2023/03/29 03:05:02;;;;;;;16.87;5.10;;;4.50;1.00;;;;;;5036487;28;20456;-50
2023/03/29 03:07:28;;;;;;;10.67;4.00;;;4.60;1.00;;;;;;5035779;28;20445;-50
2023/03/29 03:09:54;;;;;;;11.20;4.33;;;4.60;1.00;;;;;;5036435;28;20450;-51
2023/03/29 03:12:20;;;;;;;8.67;4.50;;;4.60;1.00;;;;;;5036266;28;20205;-50
2023/03/29 03:14:45;;;;;;;8.27;3.80;;;4.50;1.00;;;;;;5036419;28;20421;-50
2023/03/29 03:17:11;;;;;;;6.27;3.97;;;4.40;1.00;;;;;;5036193;28;20278;-50
2023/03/29 03:19:37;;;;;;;7.80;4.03;;;4.30;1.00;;;;;;5036693;28;20190;-50
2023/03/29 03:22:04;;;;;;;9.33;4.90;;;4.30;1.00;;;;;;5036044;28;20230;-51
2023/03/29 03:24:31;;;;;;;9.07;4.40;;;4.20;1.00;;;;;;5036364;28;20410;-51
2023/03/29 03:26:57;;;;;;;7.23;4.07;;;4.20;1.00;;;;;;5036170;28;20418;-50
2023/03/29 03:29:24;;;;;;;11.40;4.10;;;4.20;1.00;;;;;;5036200;28;20447;-50
2023/03/29 03:31:51;;;;;;;8.80;4.50;;;4.10;1.00;;;;;;5035838;28;20430;-51
2023/03/29 03:34:18;;;;;;;11.23;4.73;;;4.00;1.00;;;;;;5035998;28;20425;-51
2023/03/29 03:36:46;;;;;;;9.80;4.13;;;4.00;1.00;;;;;;5035985;28;20425;-51
2023/03/29 03:39:12;;;;;;;8.07;4.47;;;4.10;1.00;;;;;;5036096;28;20418;-50
2023/03/29 03:41:38;;;;;;;14.40;4.87;;;4.00;1.00;;;;;;5035704;28;20472;-50
2023/03/29 03:44:04;;;;;;;9.83;4.73;;;3.90;1.00;;;;;;5035835;28;20466;-50
2023/03/29 03:46:30;;;;;;;7.80;4.57;;;3.90;1.00;;;;;;5035872;28;20434;-51
2023/03/29 03:48:56;;;;;;;10.20;4.60;;;4.10;1.00;;;;;;5035804;28;20417;-50
2023/03/29 03:51:22;;;;;;;8.17;4.43;;;4.10;1.00;;;;;;5035474;28;20268;-50
2023/03/29 03:53:47;;;;;;;10.27;4.50;;;4.20;1.00;;;;;;5035395;28;20687;-51
2023/03/29 03:56:13;;;;;;;9.23;4.70;;;4.10;1.00;;;;;;5035220;28;20186;-50
2023/03/29 03:58:39;;;;;;;5.37;4.33;;;4.20;1.00;;;;;;5035874;28;20190;-50
2023/03/29 04:01:07;;;;;;;11.37;5.13;;;4.20;1.00;;;;;;5035272;28;20203;-51
2023/03/29 04:03:33;;;;;;;8.80;4.30;;;4.20;1.00;;;;;;5035550;28;20186;-50
2023/03/29 04:06:00;;;;;;;5.50;4.87;;;4.20;1.00;;;;;;5035751;28;20776;-51
2023/03/29 04:08:26;;;;;;;16.00;5.30;;;4.20;1.00;;;;;;5035598;28;20582;-51
2023/03/29 04:10:53;;;;;;;10.43;4.80;;;4.20;1.00;;;;;;5035296;28;20514;-51
2023/03/29 04:13:19;;;;;;;10.13;4.87;;;4.30;1.00;;;;;;5034894;28;20917;-50
2023/03/29 04:15:44;;;;;;;10.57;5.30;;;4.30;1.00;;;;;;5035162;28;20490;-49
2023/03/29 04:18:11;;;;;;;9.97;5.27;;;4.20;1.00;;;;;;5034948;28;20180;-50
2023/03/29 04:20:37;;;;;;;12.13;5.43;;;4.20;1.00;;;;;;5035280;28;20416;-49
2023/03/29 04:23:03;;;;;;;11.83;6.37;;;4.20;1.00;;;;;;5035086;28;20428;-50
2023/03/29 04:25:29;;;;;;;12.33;5.90;;;4.20;1.00;;;;;;5034764;28;20474;-50
2023/03/29 04:27:54;;;;;;;10.33;6.07;;;4.20;1.00;;;;;;5035185;28;20513;-50
2023/03/29 04:30:20;;;;;;;7.30;5.87;;;4.30;1.00;;;;;;5035278;28;20328;-50
2023/03/29 04:32:46;;;;;;;13.20;6.33;;;4.30;1.00;;;;;;5034965;28;20528;-49
2023/03/29 04:35:12;;;;;;;11.40;7.00;;;4.30;1.00;;;;;;5034606;28;20637;-50
2023/03/29 04:37:39;;;;;;;16.60;7.30;;;4.40;1.00;;;;;;5034736;28;20232;-50
2023/03/29 04:40:08;;;;;;;12.60;8.40;;;4.50;1.00;;;;;;5034917;28;20281;-50
2023/03/29 04:42:37;;;;;;;15.33;8.00;;;4.50;1.00;;;;;;5034972;28;20781;-49
2023/03/29 04:45:03;;;;;;;16.23;8.57;;;4.50;1.00;;;;;;5035054;28;20842;-49
2023/03/29 04:47:30;;;;;;;11.93;7.70;;;4.60;1.00;;;;;;5034999;28;20471;-50
2023/03/29 04:49:56;;;;;;;14.00;8.43;;;4.70;1.00;;;;;;5034901;28;20453;-50
2023/03/29 04:52:21;;;;;;;14.93;8.60;;;4.70;1.00;;;;;;5034373;28;20429;-50
2023/03/29 04:54:47;;;;;;;12.20;8.27;;;4.80;1.00;;;;;;5034501;28;20419;-51
2023/03/29 04:57:12;;;;;;;15.47;9.17;;;4.80;1.00;;;;;;5034329;28;20189;-49
2023/03/29 04:59:38;;;;;;;15.60;9.60;;;4.80;1.00;;;;;;5034423;28;20232;-49
2023/03/29 05:02:03;;;;;;;16.43;10.03;;;4.80;1.00;;;;;;5034214;28;20217;-49
2023/03/29 05:04:31;;;;;;;21.70;10.73;;;4.80;1.00;;;;;;5034670;28;20189;-49
2023/03/29 05:06:57;;;;;;;16.00;11.03;;;4.70;1.00;;;;;;5034519;28;20193;-50
2023/03/29 05:09:24;;;;;;;23.20;11.07;;;4.80;1.00;;;;;;5034467;28;20563;-49
2023/03/29 05:11:50;;;;;;;17.27;11.20;;;4.80;1.00;;;;;;5034240;28;20415;-49
2023/03/29 05:14:16;;;;;;;22.50;11.30;;;4.90;1.00;;;;;;5033952;28;20429;-49
2023/03/29 05:16:42;;;;;;;17.07;11.37;;;4.90;1.00;;;;;;5034015;28;20241;-49
2023/03/29 05:19:10;;;;;;;22.47;11.93;;;5.00;1.00;;;;;;5033862;28;20238;-50
2023/03/29 05:21:35;;;;;;;17.83;11.73;;;5.10;1.00;;;;;;5033849;28;20559;-49
2023/03/29 05:24:01;;;;;;;20.70;12.37;;;5.10;1.00;;;;;;5033775;28;20502;-50
2023/03/29 05:26:27;;;;;;;18.53;11.47;;;5.10;1.00;;;;;;5034222;28;20183;-50
2023/03/29 05:28:53;;;;;;;20.50;12.30;;;5.10;1.00;;;;;;5033890;28;20198;-49
2023/03/29 05:31:18;;;;;;;16.27;11.30;;;5.10;1.00;;;;;;5033297;28;20193;-49
2023/03/29 05:33:46;;;;;;;21.20;11.70;;;5.10;1.00;;;;;;5033552;28;20182;-50
2023/03/29 05:36:14;;;;;;;19.43;12.53;;;5.10;1.00;;;;;;5034137;28;20186;-49
2023/03/29 05:38:41;;;;;;;19.40;12.07;;;5.20;1.00;;;;;;5033593;28;20826;-50
2023/03/29 05:41:07;;;;;;;19.80;12.10;;;5.20;1.00;;;;;;5033535;28;20968;-49
2023/03/29 05:43:33;;;;;;;22.70;11.80;;;5.20;1.00;;;;;;5033613;28;20428;-50
2023/03/29 05:45:59;;;;;;;22.40;12.80;;;5.30;1.00;;;;;;5034007;28;20426;-50
2023/03/29 05:48:26;;;;;;;18.93;12.33;;;5.30;1.00;;;;;;5033378;28;20980;-50
2023/03/29 05:50:53;;;;;;;17.23;11.60;;;5.30;1.00;;;;;;5033942;28;20420;-51
2023/03/29 05:53:20;;;;;;;23.47;11.43;;;5.30;1.00;;;;;;5033662;28;20423;-50
2023/03/29 05:55:46;;;;;;;18.00;11.40;;;5.30;1.00;;;;;;5033695;28;20421;-49
2023/03/29 05:58:13;;;;;;;20.00;11.10;;;5.40;1.00;;;;;;5033630;28;20918;-50
2023/03/29 06:00:42;;;;;;;21.83;10.93;;;5.50;1.00;;;;;;5033600;28;20411;-51
2023/03/29 06:03:17;;;;;;;19.97;11.67;;;5.40;1.00;;;;;;5033717;28;20414;-50
2023/03/29 06:05:47;;;;;;;21.30;12.00;;;5.50;1.00;;;;;;5033574;28;20749;-50
2023/03/29 06:08:16;;;;;;;19.37;12.30;;;5.50;1.00;;;;;;5033264;28;20516;-50
2023/03/29 06:10:42;;;;;;;23.93;12.57;;;5.50;1.00;;;;;;5033317;28;20897;-50
2023/03/29 06:13:08;;;;;;;26.40;12.50;;;5.50;1.00;;;;;;5031771;28;20600;-50
2023/03/29 06:15:34;;;;;;;23.60;11.77;;;5.60;1.00;;;;;;5033235;28;20178;-51
2023/03/29 06:18:01;;;;;;;19.13;11.07;;;5.60;1.00;;;;;;5033623;28;20650;-50
2023/03/29 06:20:26;;;;;;;17.70;10.70;;;5.70;1.00;;;;;;5033217;28;20511;-50
2023/03/29 06:22:52;;;;;;;19.63;11.60;;;5.70;1.00;;;;;;5033317;28;20520;-50
2023/03/29 06:25:18;;;;;;;22.97;13.10;;;5.80;1.00;;;;;;5033714;28;20292;-50
2023/03/29 06:27:47;;;;;;;15.37;10.00;;;5.80;1.00;;;;;;5033757;28;20205;-50
2023/03/29 06:30:14;;;;;;;21.83;11.07;;;5.90;1.00;;;;;;5033374;28;20428;-51
2023/03/29 06:32:41;;;;;;;11.33;9.20;;;5.80;1.00;;;;;;5032943;28;20476;-50
2023/03/29 06:35:08;;;;;;;25.10;11.50;;;5.90;1.00;;;;;;5033426;28;20421;-50
2023/03/29 06:37:34;;;;;;;19.70;10.53;;;5.90;1.00;;;;;;5033339;28;20421;-50
2023/03/29 06:40:01;;;;;;;19.67;10.73;;;5.90;1.00;;;;;;5033182;28;20909;-50
2023/03/29 06:42:27;;;;;;;18.77;10.13;;;5.90;1.00;;;;;;5034439;28;20935;-50
2023/03/29 06:44:53;;;;;;;17.50;9.37;;;5.90;1.00;;;;;;5037165;28;20468;-50
2023/03/29 06:47:18;;;;;;;15.50;9.70;;;6.00;1.00;;;;;;5036910;28;20459;-50
2023/03/29 06:49:44;;;;;;;13.67;10.03;;;5.90;1.00;;;;;;5036890;28;20185;-50
2023/03/29 06:52:10;;;;;;;13.90;8.70;;;6.00;1.00;;;;;;5037081;28;20194;-49
2023/03/29 06:54:36;;;;;;;18.83;9.83;;;6.10;1.00;;;;;;5036802;28;20178;-50
2023/03/29 06:57:04;;;;;;;13.77;8.43;;;6.00;1.00;;;;;;5036645;28;20211;-50
2023/03/29 06:59:29;;;;;;;21.00;9.70;;;6.00;1.00;;;;;;5036565;28;20281;-50
2023/03/29 07:01:55;;;;;;;17.70;9.43;;;6.10;1.00;;;;;;5036915;28;20533;-50
2023/03/29 07:04:23;;;;;;;16.90;8.57;;;6.10;1.00;;;;;;5037100;28;20615;-50
2023/03/29 07:07:00;;;;;;;15.77;8.40;;;6.20;1.00;;;;;;5037066;28;20190;-51
2023/03/29 07:09:29;;;;;;;10.80;7.73;;;6.30;1.00;;;;;;5037045;28;20412;-50
2023/03/29 07:11:58;;;;;;;13.83;8.10;;;6.30;1.00;;;;;;5036869;28;20467;-50
2023/03/29 07:14:27;;;;;;;13.30;7.93;;;6.30;1.00;;;;;;5036502;28;20449;-50
2023/03/29 07:16:59;;;;;;;13.93;8.40;;;6.40;1.00;;;;;;5036351;28;20457;-50
2023/03/29 07:19:27;;;;;;;16.93;7.83;;;6.40;1.00;;;;;;5036637;28;20424;-50
2023/03/29 07:21:53;;;;;;;10.10;6.37;;;6.50;1.00;;;;;;5036562;28;20503;-50
2023/03/29 07:24:20;;;;;;;13.47;7.47;;;6.50;1.00;;;;;;5036616;28;20454;-50
2023/03/29 07:26:47;;;;;;;10.87;7.27;;;6.60;1.00;;;;;;5036202;28;20201;-50
2023/03/29 07:29:14;;;;;;;12.57;7.40;;;6.70;1.00;;;;;;5036427;28;20444;-49
2023/03/29 07:31:40;;;;;;;10.40;7.00;;;6.70;1.00;;;;;;5036062;28;20431;-50
2023/03/29 07:34:09;;;;;;;10.63;6.87;;;6.70;1.00;;;;;;5036476;28;20447;-50
2023/03/29 07:36:37;;;;;;;9.40;6.30;;;6.60;1.00;;;;;;5035756;28;20425;-50
2023/03/29 07:39:04;;;;;;;11.17;6.73;;;6.60;1.00;;;;;;5036156;28;20416;-50
2023/03/29 07:41:29;;;;;;;13.83;7.60;;;6.60;1.00;;;;;;5035837;28;20461;-50
2023/03/29 07:43:55;;;;;;;11.50;7.10;;;6.70;1.00;;;;;;5035698;28;20842;-50
2023/03/29 07:46:21;;;;;;;12.47;7.20;;;6.80;1.00;;;;;;5035551;28;20182;-50
2023/03/29 07:48:47;;;;;;;10.00;6.40;;;6.90;1.00;;;;;;5035839;28;20498;-50
2023/03/29 07:51:13;;;;;;;10.90;7.40;;;6.90;1.00;;;;;;5035923;28;20428;-50
2023/03/29 07:53:38;;;;;;;13.37;6.97;;;7.10;1.00;;;;;;5035163;28;20212;-50
2023/03/29 07:56:05;;;;;;;12.07;7.33;;;7.10;1.00;;;;;;5035239;28;20192;-51
2023/03/29 07:58:30;;;;;;;10.30;6.90;;;7.10;1.00;;;;;;5033665;28;20186;-50
2023/03/29 08:00:58;;;;;;;12.30;6.70;;;7.10;1.00;;;;;;5035242;28;20471;-51
2023/03/29 08:03:24;;;;;;;13.53;6.77;;;7.20;1.00;;;;;;5035364;28;20197;-50
2023/03/29 08:05:50;;;;;;;11.63;6.80;;;7.20;1.00;;;;;;5034966;28;20417;-49
2023/03/29 08:08:16;;;;;;;7.57;5.70;;;7.20;1.00;;;;;;5034873;28;20691;-50
2023/03/29 08:10:41;;;;;;;11.43;6.33;;;7.30;1.00;;;;;;5034959;28;20186;-51
2023/03/29 08:13:08;;;;;;;10.10;6.70;;;7.30;1.00;;;;;;5034775;28;20182;-51
2023/03/29 08:15:36;;;;;;;10.60;7.17;;;7.30;1.00;;;;;;5034893;28;20183;-50
2023/03/29 08:18:02;;;;;;;9.37;6.13;;;7.40;1.00;;;;;;5034806;28;20436;-50
2023/03/29 08:20:28;;;;;;;10.37;7.00;;;7.50;1.00;;;;;;5034682;28;20922;-50
2023/03/29 08:22:53;;;;;;;11.00;6.33;;;7.50;1.00;;;;;;5034653;28;20437;-50
2023/03/29 08:25:19;;;;;;;10.93;6.50;;;7.60;1.00;;;;;;5034887;28;20692;-51
2023/03/29 08:27:45;;;;;;;6.80;6.00;;;7.60;1.00;;;;;;5034478;28;20297;-50
2023/03/29 08:30:11;;;;;;;10.53;6.53;;;7.50;1.00;;;;;;5034751;28;20520;-50
2023/03/29 08:32:37;;;;;;;11.70;6.67;;;7.50;1.00;;;;;;5034139;28;20196;-50
2023/03/29 08:35:05;;;;;;;8.50;5.90;;;7.50;1.00;;;;;;5034221;28;20542;-50
2023/03/29 08:37:31;;;;;;;11.80;6.97;;;7.60;1.00;;;;;;5034377;28;20496;-51
2023/03/29 08:39:57;;;;;;;8.20;5.60;;;7.80;1.00;;;;;;5034540;28;20412;-50
2023/03/29 08:42:37;;;;;;;8.97;5.67;;;7.80;1.00;;;;;;5034363;28;20480;-50
2023/03/29 08:45:10;;;;;;;8.97;6.20;;;7.80;1.00;;;;;;5034047;28;20534;-50
2023/03/29 08:48:01;;;;;;;8.90;6.53;;;7.70;1.00;;;;;;5034506;28;20421;-50
2023/03/29 08:50:34;;;;;;;12.03;6.33;;;7.60;1.00;;;;;;5034191;28;20831;-51
2023/03/29 08:53:23;;;;;;;10.50;6.50;;;7.70;1.00;;;;;;5034035;28;20443;-51
2023/03/29 08:55:50;;;;;;;10.77;6.50;;;7.70;1.00;;;;;;5034117;28;20897;-50
2023/03/29 08:58:23;;;;;;;10.63;6.20;;;7.70;1.00;;;;;;5034251;28;20413;-50
2023/03/29 09:01:00;;;;;;;9.53;6.67;;;7.70;1.00;;;;;;5033896;28;20418;-51
2023/03/29 09:03:34;;;;;;;11.10;6.50;;;7.70;1.00;;;;;;5034287;28;20798;-51
2023/03/29 09:06:06;;;;;;;8.57;5.80;;;7.80;1.00;;;;;;5033462;28;20423;-51
2023/03/29 09:08:45;;;;;;;12.57;6.30;;;7.80;1.00;;;;;;5034208;28;20512;-50
2023/03/29 09:11:19;;;;;;;8.27;6.00;;;7.90;1.00;;;;;;5034023;28;20570;-51
2023/03/29 09:14:06;;;;;;;8.90;6.37;;;7.90;1.00;;;;;;5033670;28;20987;-51
2023/03/29 09:16:53;;;;;;;11.50;6.50;;;7.90;1.00;;;;;;5034080;28;20416;-51
2023/03/29 09:19:38;;;;;;;13.70;6.80;;;7.90;1.00;;;;;;5033898;28;20417;-50
2023/03/29 09:22:28;;;;;;;10.13;6.47;;;8.00;1.00;;;;;;5033538;28;20967;-51
2023/03/29 09:25:08;;;;;;;9.20;6.57;;;8.10;1.00;;;;;;5034067;28;20410;-49
2023/03/29 09:27:46;;;;;;;9.60;6.70;;;8.00;1.00;;;;;;5033435;28;20405;-50
2023/03/29 09:30:32;;;;;;;8.77;6.13;;;8.00;1.00;;;;;;5033823;28;20440;-50
2023/03/29 09:33:23;;;;;;;13.33;6.80;;;8.00;1.00;;;;;;5033400;28;20739;-51
2023/03/29 09:35:56;;;;;;;10.10;7.27;;;8.10;1.00;;;;;;5033247;28;20807;-50
2023/03/29 09:38:21;;;;;;;13.57;6.57;;;8.10;1.00;;;;;;5033688;28;20803;-50
2023/03/29 09:41:05;;;;;;;13.20;7.00;;;8.10;1.00;;;;;;5032993;28;20419;-50
2023/03/29 09:43:34;;;;;;;7.57;6.13;;;8.10;1.00;;;;;;5033409;28;20227;-51
2023/03/29 09:46:05;;;;;;;10.90;6.27;;;8.10;1.00;;;;;;5033647;28;20416;-51
2023/03/29 09:48:37;;;;;;;9.07;5.97;;;8.30;1.00;;;;;;5033254;28;20417;-50
2023/03/29 09:51:06;;;;;;;7.67;6.23;;;8.60;1.00;;;;;;5033522;28;20418;-50
2023/03/29 09:53:32;;;;;;;10.00;6.50;;;8.80;1.00;;;;;;5033269;28;20912;-51
2023/03/29 09:56:00;;;;;;;9.70;6.37;;;8.80;1.00;;;;;;5033015;28;20416;-50
2023/03/29 09:58:29;;;;;;;7.60;5.90;;;8.90;1.00;;;;;;5033532;28;20216;-50
2023/03/29 10:01:01;;;;;;;14.90;6.90;;;8.90;1.00;;;;;;5033169;28;20460;-51
2023/03/29 10:03:29;;;;;;;9.90;6.60;;;9.00;1.00;;;;;;5033289;28;20456;-50
2023/03/29 10:05:57;;;;;;;9.60;6.97;;;8.90;1.00;;;;;;5032988;28;20467;-50
2023/03/29 10:08:38;;;;;;;11.87;6.20;;;8.80;1.00;;;;;;5033380;28;20531;-50
2023/03/29 10:11:13;;;;;;;11.83;6.57;;;8.90;1.00;;;;;;5033353;28;20435;-50
2023/03/29 10:13:53;;;;;;;14.00;7.10;;;9.00;1.00;;;;;;5033234;28;20901;-50
2023/03/29 10:16:33;;;;;;;8.27;6.10;;;9.20;1.00;;;;;;5034346;28;20419;-51
2023/03/29 10:19:20;;;;;;;13.63;6.30;;;9.40;1.00;;;;;;5037179;28;20419;-50
2023/03/29 10:21:57;;;;;;;9.40;6.70;;;9.50;1.00;;;;;;5037067;28;20500;-51
2023/03/29 10:24:24;;;;;;;9.10;5.57;;;9.50;1.00;;;;;;5036839;28;20397;-50
2023/03/29 10:26:56;;;;;;;13.73;6.90;;;9.50;1.00;;;;;;5036761;28;20412;-50
2023/03/29 10:29:23;;;;;;;8.93;6.20;;;9.50;1.00;;;;;;5036524;28;20974;-49
2023/03/29 10:31:50;;;;;;;10.47;6.87;;;9.50;1.00;;;;;;5037026;28;20770;-49
2023/03/29 10:34:17;;;;;;;10.67;7.10;;;9.40;1.00;;;;;;5036577;28;20417;-51
2023/03/29 10:36:52;;;;;;;10.47;7.40;;;9.40;1.00;;;;;;5036749;28;20417;-51
2023/03/29 10:39:19;;;;;;;12.60;7.40;;;9.70;1.00;;;;;;5036973;28;20400;-51
2023/03/29 10:41:48;;;;;;;14.70;7.97;;;10.00;1.00;;;;;;5036538;28;20840;-52
2023/03/29 10:44:27;;;;;;;10.00;6.80;;;10.20;1.00;;;;;;5036182;28;20469;-51
2023/03/29 10:46:53;;;;;;;10.30;7.03;;;10.30;1.00;;;;;;5036595;28;20420;-51
2023/03/29 10:49:22;;;;;;;13.67;7.23;;;10.30;1.00;;;;;;5036607;28;20569;-50
2023/03/29 10:51:49;;;;;;;10.63;7.20;;;10.30;1.00;;;;;;5036172;28;20201;-50
2023/03/29 10:54:19;;;;;;;12.97;7.83;;;10.20;1.00;;;;;;5036804;28;20427;-51
2023/03/29 10:56:57;;;;;;;11.27;7.50;;;10.00;1.00;;;;;;5036692;28;20423;-50
2023/03/29 10:59:39;;;;;;;11.10;7.47;;;9.90;1.00;;;;;;5036438;28;20417;-50
2023/03/29 11:02:08;;;;;;;10.40;7.50;;;9.80;1.00;;;;;;5036210;28;20814;-50
2023/03/29 11:04:39;;;;;;;10.00;7.67;;;9.60;1.00;;;;;;5036463;28;20425;-50
2023/03/29 11:07:42;;;;;;;17.63;8.80;;;9.70;1.00;;;;;;5036387;28;20419;-50
2023/03/29 11:10:23;;;;;;;12.00;8.13;;;9.60;1.00;;;;;;5036286;28;20421;-50
2023/03/29 11:13:22;;;;;;;18.77;8.30;;;9.70;1.00;;;;;;5036214;28;20409;-51
2023/03/29 11:16:07;;;;;;;13.97;8.10;;;9.80;1.00;;;;;;5036365;28;20438;-50
2023/03/29 11:18:35;;;;;;;12.03;8.47;;;9.90;1.00;;;;;;5036055;28;20413;-51
2023/03/29 11:21:13;;;;;;;11.03;7.37;;;9.80;1.00;;;;;;5035983;28;20468;-51
2023/03/29 11:23:38;;;;;;;11.87;7.90;;;9.90;1.00;;;;;;5035894;28;20427;-51
2023/03/29 11:26:04;;;;;;;11.23;7.97;;;9.80;1.00;;;;;;5035994;28;20940;-51
2023/03/29 11:29:06;;;;;;;15.83;7.97;;;9.70;1.00;;;;;;5035055;28;20217;-50
2023/03/29 11:32:04;;;;;;;12.07;7.93;;;9.50;1.00;;;;;;5035937;28;20182;-50
2023/03/29 11:34:51;;;;;;;11.80;7.97;;;9.40;1.00;;;;;;5032211;28;20433;-52
2023/03/29 11:37:28;;;;;;;15.87;9.37;;;9.30;1.00;;;;;;5035768;28;20436;-51
2023/03/29 11:40:14;;;;;;;13.93;8.40;;;9.40;1.00;;;;;;5035912;28;20405;-51
2023/03/29 11:42:46;;;;;;;18.07;8.70;;;9.50;1.00;;;;;;5035748;28;20457;-50
2023/03/29 11:45:17;;;;;;;13.43;8.90;;;9.50;1.00;;;;;;5035198;28;20500;-50
2023/03/29 11:47:45;;;;;;;14.57;9.20;;;9.60;1.00;;;;;;5035351;28;20413;-51
2023/03/29 11:50:24;;;;;;;17.63;9.17;;;9.50;1.00;;;;;;5035500;28;20448;-51
2023/03/29 11:53:07;;;;;;;13.87;9.57;;;9.40;1.00;;;;;;5035555;28;20411;-51
2023/03/29 11:55:37;;;;;;;13.37;9.30;;;9.40;1.00;;;;;;5035542;28;20425;-50
2023/03/29 11:58:29;;;;;;;12.13;8.20;;;9.40;1.00;;;;;;5035426;28;20408;-50
2023/03/29 12:01:02;;;;;;;17.33;9.53;;;9.50;1.00;;;;;;5035190;28;20443;-51
2023/03/29 12:03:43;;;;;;;16.30;9.80;;;9.80;1.00;;;;;;5034940;28;20417;-51
2023/03/29 12:06:17;;;;;;;14.60;9.93;;;10.00;1.00;;;;;;5034474;28;20915;-51
2023/03/29 12:08:50;;;;;;;14.27;10.47;;;10.00;1.00;;;;;;5034498;28;20402;-51
2023/03/29 12:11:21;;;;;;;14.53;9.80;;;9.90;1.00;;;;;;5034914;28;20900;-51
2023/03/29 12:13:53;;;;;;;23.93;9.93;;;9.80;1.00;;;;;;5034794;28;20413;-50
2023/03/29 12:16:38;;;;;;;12.43;9.40;;;9.80;1.00;;;;;;5035194;28;20808;-50
2023/03/29 12:19:30;;;;;;;11.83;9.60;;;9.70;1.00;;;;;;5034673;28;20505;-50
2023/03/29 12:21:57;;;;;;;25.90;10.43;;;9.70;1.00;;;;;;5034221;28;20497;-49
2023/03/29 12:24:28;;;;;;;13.80;9.87;;;9.90;1.00;;;;;;5034993;28;20420;-49
2023/03/29 12:27:21;;;;;;;14.40;9.73;;;10.00;1.00;;;;;;5034644;28;20516;-50
2023/03/29 12:30:15;;;;;;;15.20;9.67;;;9.90;1.00;;;;;;5034734;28;20460;-49
2023/03/29 12:32:57;;;;;;;14.70;10.13;;;9.90;1.00;;;;;;5034706;28;20528;-49
2023/03/29 12:35:40;;;;;;;17.00;10.03;;;10.00;1.00;;;;;;5034380;28;20424;-50
2023/03/29 12:38:09;;;;;;;14.50;10.73;;;10.00;1.00;;;;;;5034850;28;20461;-49
2023/03/29 12:40:44;;;;;;;19.03;10.63;;;10.00;1.00;;;;;;5033369;28;20416;-51
2023/03/29 12:43:47;;;;;;;14.63;10.70;;;10.10;1.00;;;;;;5034667;28;20440;-48
2023/03/29 12:46:24;;;;;;;13.37;10.33;;;10.10;1.00;;;;;;5034074;28;20417;-49
2023/03/29 12:49:13;;;;;;;15.10;11.00;;;10.10;1.00;;;;;;5034143;28;20439;-48
2023/03/29 12:51:41;;;;;;;14.60;10.90;;;10.20;1.00;;;;;;5034469;28;20418;-49
2023/03/29 12:54:16;;;;;;;14.63;10.20;;;10.20;1.00;;;;;;5034290;28;20421;-49
2023/03/29 12:56:51;;;;;;;13.73;9.70;;;10.20;1.00;;;;;;5033891;28;20432;-50
2023/03/29 12:59:26;;;;;;;15.70;10.50;;;10.20;1.00;;;;;;5033834;28;20463;-49
2023/03/29 13:01:57;;;;;;;13.17;10.30;;;10.40;1.00;;;;;;5033505;28;20809;-49
2023/03/29 13:04:55;;;;;;;16.90;10.63;;;10.50;1.00;;;;;;5033793;28;20761;-51
2023/03/29 13:07:26;;;;;;;13.63;9.87;;;10.50;1.00;;;;;;5033530;28;20472;-51
2023/03/29 13:10:02;;;;;;;18.40;9.87;;;10.60;1.00;;;;;;5033941;28;20421;-51
2023/03/29 13:12:44;;;;;;;16.23;11.10;;;10.60;1.00;;;;;;5033972;28;20515;-51
2023/03/29 13:15:16;;;;;;;13.17;9.97;;;10.80;1.00;;;;;;5034081;28;20401;-51
2023/03/29 13:18:00;;;;;;;10.80;9.13;;;11.00;1.00;;;;;;5033918;28;20413;-51